Time;durP1;ratioP1;P1;durP2;ratioP2;P2;SDS_P1;SDS_P2;PMS_P1;PMS_P2;Temp;Humidity;BMP_temperature;BMP_pressure;BME280_temperature;BME280_humidity;BME280_pressure;Samples;Min_cycle;Max_cycle;Signal;HPM_P1;HPM_P2
2022/04/28 00:01:46;;;;;;;5.78;2.78;;;;;;;;;;5005318;28;20111;-81
2022/04/28 00:04:12;;;;;;;4.55;2.67;;;;;;;;;;5013253;28;20534;-81
2022/04/28 00:06:38;;;;;;;5.03;3.13;;;;;;;;;;5005622;28;20030;-81
2022/04/28 00:09:04;;;;;;;4.07;2.70;;;;;;;;;;5011198;28;20142;-81
2022/04/28 00:11:30;;;;;;;4.88;2.97;;;;;;;;;;5014492;28;20145;-81
2022/04/28 00:13:58;;;;;;;6.07;2.67;;;;;;;;;;5010543;28;20046;-82
2022/04/28 00:16:24;;;;;;;4.47;2.80;;;;;;;;;;5006350;28;20058;-81
2022/04/28 00:18:50;;;;;;;3.13;2.80;;;;;;;;;;5011915;28;20057;-81
2022/04/28 00:21:16;;;;;;;3.10;2.80;;;;;;;;;;5010983;28;20065;-81
2022/04/28 00:23:42;;;;;;;3.70;2.78;;;;;;;;;;5005002;28;20076;-81
2022/04/28 00:26:09;;;;;;;4.35;2.67;;;;;;;;;;5008023;28;20452;-81
2022/04/28 00:28:35;;;;;;;3.97;2.67;;;;;;;;;;5010416;28;20050;-81
2022/04/28 00:31:00;;;;;;;4.38;2.95;;;;;;;;;;5011535;28;20049;-81
2022/04/28 00:33:27;;;;;;;4.65;3.00;;;;;;;;;;5007769;28;20445;-81
2022/04/28 00:35:53;;;;;;;6.35;2.88;;;;;;;;;;5006303;28;20046;-81
2022/04/28 00:38:19;;;;;;;4.32;3.08;;;;;;;;;;5009479;28;20052;-82
2022/04/28 00:40:46;;;;;;;5.38;2.90;;;;;;;;;;5010246;28;20045;-81
2022/04/28 00:43:18;;;;;;;5.90;3.25;;;;;;;;;;5009710;28;20052;-81
2022/04/28 00:45:44;;;;;;;5.22;3.03;;;;;;;;;;5008540;28;20133;-81
2022/04/28 00:50:57;;;;;;;6.13;3.40;;;;;;;;;;5009732;28;20053;-82
2022/04/28 00:53:24;;;;;;;6.90;3.40;;;;;;;;;;5005528;28;20413;-82
2022/04/28 00:55:50;;;;;;;4.82;3.45;;;;;;;;;;5007745;28;20054;-82
2022/04/28 00:58:16;;;;;;;5.65;3.22;;;;;;;;;;5007108;28;20152;-82
2022/04/28 01:00:43;;;;;;;5.47;3.50;;;;;;;;;;5005661;28;20049;-81
2022/04/28 01:03:09;;;;;;;5.97;3.45;;;;;;;;;;5004238;28;20042;-82
2022/04/28 01:05:35;;;;;;;5.22;2.97;;;;;;;;;;5009112;28;20046;-81
2022/04/28 01:08:01;;;;;;;4.68;3.28;;;;;;;;;;5007545;28;20060;-81
2022/04/28 01:10:27;;;;;;;4.70;3.05;;;;;;;;;;5001918;28;20565;-81
2022/04/28 01:12:53;;;;;;;4.38;3.00;;;;;;;;;;5007991;28;20263;-81
2022/04/28 01:15:19;;;;;;;7.60;3.30;;;;;;;;;;5008989;28;20046;-82
2022/04/28 01:17:45;;;;;;;6.18;3.20;;;;;;;;;;5000654;28;20054;-81
2022/04/28 01:20:11;;;;;;;4.03;2.80;;;;;;;;;;5009050;28;20038;-81
2022/04/28 01:22:38;;;;;;;4.68;3.00;;;;;;;;;;5003072;28;20049;-81
2022/04/28 01:25:07;;;;;;;3.80;2.40;;;;;;;;;;5006869;28;20128;-81
2022/04/28 01:27:34;;;;;;;5.55;2.97;;;;;;;;;;5003983;28;20042;-80
2022/04/28 01:30:00;;;;;;;3.92;2.42;;;;;;;;;;5008734;28;20050;-81
2022/04/28 01:32:26;;;;;;;3.83;2.63;;;;;;;;;;5007488;28;20041;-81
2022/04/28 01:34:52;;;;;;;5.15;2.78;;;;;;;;;;5005855;28;20068;-81
2022/04/28 01:37:18;;;;;;;3.45;2.50;;;;;;;;;;5006052;28;20045;-81
2022/04/28 01:39:44;;;;;;;5.38;2.90;;;;;;;;;;5001017;28;20055;-81
2022/04/28 01:42:10;;;;;;;7.10;3.05;;;;;;;;;;4999985;28;20195;-81
2022/04/28 01:44:36;;;;;;;7.68;2.83;;;;;;;;;;5009578;28;20050;-80
2022/04/28 01:47:03;;;;;;;7.53;3.30;;;;;;;;;;5004460;28;20053;-81
2022/04/28 01:49:29;;;;;;;5.32;2.95;;;;;;;;;;5007104;28;20133;-81
2022/04/28 01:57:25;;;;;;;7.93;3.05;;;;;;;;;;5012287;28;20477;-81
2022/04/28 01:59:51;;;;;;;7.85;3.05;;;;;;;;;;5027376;28;20049;-81
2022/04/28 02:02:17;;;;;;;6.13;3.20;;;;;;;;;;5019346;28;20038;-81
2022/04/28 02:04:43;;;;;;;7.32;3.13;;;;;;;;;;5016560;28;20057;-81
2022/04/28 02:07:13;;;;;;;5.60;3.40;;;;;;;;;;5029549;28;20132;-81
2022/04/28 02:09:39;;;;;;;5.40;2.95;;;;;;;;;;5011307;28;20045;-80
2022/04/28 02:12:05;;;;;;;4.25;2.90;;;;;;;;;;5033069;28;20050;-81
2022/04/28 02:14:31;;;;;;;6.72;3.10;;;;;;;;;;5005905;28;20476;-80
2022/04/28 02:16:57;;;;;;;5.57;2.53;;;;;;;;;;5010019;28;20069;-81
2022/04/28 02:19:24;;;;;;;5.55;2.70;;;;;;;;;;5029235;28;20041;-80
2022/04/28 02:21:50;;;;;;;6.28;2.90;;;;;;;;;;5009878;28;20455;-81
2022/04/28 02:24:16;;;;;;;5.05;2.75;;;;;;;;;;5031838;28;20501;-81
2022/04/28 02:26:42;;;;;;;5.03;2.72;;;;;;;;;;5029010;28;20045;-80
2022/04/28 02:29:08;;;;;;;5.60;2.50;;;;;;;;;;5013142;28;20099;-80
2022/04/28 02:31:34;;;;;;;6.95;3.00;;;;;;;;;;5028509;28;20045;-81
2022/04/28 02:34:00;;;;;;;6.55;2.90;;;;;;;;;;5012918;28;20079;-81
2022/04/28 02:36:26;;;;;;;6.20;3.00;;;;;;;;;;5029742;28;20042;-81
2022/04/28 02:38:52;;;;;;;4.25;2.60;;;;;;;;;;5014460;28;20107;-80
2022/04/28 02:41:21;;;;;;;6.78;2.90;;;;;;;;;;5012889;28;20044;-80
2022/04/28 02:43:48;;;;;;;6.50;2.95;;;;;;;;;;5015095;28;20091;-81
2022/04/28 02:46:14;;;;;;;5.97;3.10;;;;;;;;;;5011326;28;20401;-81
2022/04/28 02:48:40;;;;;;;4.80;2.80;;;;;;;;;;5029374;28;20121;-81
2022/04/28 02:51:06;;;;;;;5.18;3.35;;;;;;;;;;5027022;28;20081;-81
2022/04/28 02:53:33;;;;;;;4.05;2.67;;;;;;;;;;5030503;28;20382;-80
2022/04/28 02:55:59;;;;;;;5.22;3.20;;;;;;;;;;5009625;28;20049;-81
2022/04/28 02:58:28;;;;;;;4.65;3.10;;;;;;;;;;5027757;28;20041;-81
2022/04/28 03:00:54;;;;;;;5.35;3.17;;;;;;;;;;5004791;28;20080;-81
2022/04/28 03:03:20;;;;;;;4.90;3.40;;;;;;;;;;5014966;28;20038;-81
2022/04/28 03:11:18;;;;;;;3.42;3.13;;;;;;;;;;5031544;28;20619;-80
2022/04/28 03:13:44;;;;;;;5.60;3.38;;;;;;;;;;5030122;28;20553;-80
2022/04/28 03:16:10;;;;;;;4.22;3.00;;;;;;;;;;5007529;28;20137;-81
2022/04/28 03:18:37;;;;;;;5.40;3.33;;;;;;;;;;5030557;28;20041;-80
2022/04/28 03:21:05;;;;;;;4.45;3.05;;;;;;;;;;5011040;28;20053;-81
2022/04/28 03:23:31;;;;;;;6.22;3.10;;;;;;;;;;5012391;28;20053;-80
2022/04/28 03:25:57;;;;;;;6.40;3.22;;;;;;;;;;5010965;28;20502;-81
2022/04/28 03:28:24;;;;;;;8.20;3.30;;;;;;;;;;5014223;28;20041;-80
2022/04/28 03:30:50;;;;;;;7.95;3.25;;;;;;;;;;5010330;28;20084;-81
2022/04/28 03:33:17;;;;;;;7.45;3.38;;;;;;;;;;5018137;28;20039;-80
2022/04/28 03:35:43;;;;;;;6.50;3.60;;;;;;;;;;5008427;28;20143;-80
2022/04/28 03:38:13;;;;;;;5.18;3.20;;;;;;;;;;5011396;28;20072;-80
2022/04/28 03:40:40;;;;;;;3.92;3.45;;;;;;;;;;5027704;28;20049;-80
2022/04/28 03:43:06;;;;;;;5.25;3.40;;;;;;;;;;5022327;28;20718;-81
2022/04/28 03:45:33;;;;;;;5.55;3.50;;;;;;;;;;5023069;28;20048;-81
2022/04/28 03:47:59;;;;;;;5.65;3.40;;;;;;;;;;5005499;28;20219;-81
2022/04/28 03:50:28;;;;;;;6.40;3.40;;;;;;;;;;5018063;28;20604;-81
2022/04/28 03:52:54;;;;;;;5.93;3.20;;;;;;;;;;5017714;28;20073;-81
2022/04/28 03:55:20;;;;;;;4.93;3.35;;;;;;;;;;5026982;28;20041;-81
2022/04/28 03:57:46;;;;;;;5.40;3.30;;;;;;;;;;5025245;28;20125;-81
2022/04/28 04:00:13;;;;;;;7.15;3.67;;;;;;;;;;5028480;28;20132;-81
2022/04/28 04:02:39;;;;;;;5.95;3.28;;;;;;;;;;5010641;28;20128;-81
2022/04/28 04:05:05;;;;;;;5.78;3.60;;;;;;;;;;5029062;28;20092;-81
2022/04/28 04:07:32;;;;;;;7.53;3.65;;;;;;;;;;5027400;28;20146;-80
2022/04/28 04:09:58;;;;;;;5.97;3.67;;;;;;;;;;5027339;28;20052;-80
2022/04/28 04:12:25;;;;;;;5.75;3.85;;;;;;;;;;5012355;28;20053;-81
2022/04/28 04:14:52;;;;;;;6.03;3.40;;;;;;;;;;5022628;28;20046;-81
2022/04/28 04:17:18;;;;;;;5.55;3.50;;;;;;;;;;5014513;28;20053;-81
2022/04/28 04:19:47;;;;;;;7.30;3.63;;;;;;;;;;5016901;28;20062;-81
2022/04/28 04:22:13;;;;;;;5.88;3.47;;;;;;;;;;5030415;28;20049;-81
2022/04/28 04:24:42;;;;;;;6.40;4.03;;;;;;;;;;5029217;28;20047;-81
2022/04/28 04:27:14;;;;;;;5.80;3.80;;;;;;;;;;5028086;28;20037;-80
2022/04/28 04:29:40;;;;;;;5.80;4.18;;;;;;;;;;5011613;28;20053;-81
2022/04/28 04:32:20;;;;;;;5.57;4.22;;;;;;;;;;5021541;28;20049;-81
2022/04/28 04:34:47;;;;;;;5.32;3.70;;;;;;;;;;5026014;28;20168;-81
2022/04/28 04:37:13;;;;;;;6.97;4.10;;;;;;;;;;5025966;28;20038;-80
2022/04/28 04:39:43;;;;;;;6.78;3.78;;;;;;;;;;5026112;28;20049;-81
2022/04/28 04:42:09;;;;;;;6.78;4.43;;;;;;;;;;5020475;28;20043;-80
2022/04/28 04:44:35;;;;;;;7.30;4.10;;;;;;;;;;5028359;28;20151;-81
2022/04/28 04:47:01;;;;;;;5.35;3.60;;;;;;;;;;5030616;28;20045;-82
2022/04/28 04:49:27;;;;;;;6.70;3.95;;;;;;;;;;5011433;28;20061;-81
2022/04/28 04:51:53;;;;;;;6.55;4.00;;;;;;;;;;5009722;28;20092;-82
2022/04/28 04:54:22;;;;;;;5.75;3.90;;;;;;;;;;5025375;28;20053;-80
2022/04/28 04:56:51;;;;;;;5.97;3.80;;;;;;;;;;5029307;28;20053;-81
2022/04/28 04:59:17;;;;;;;5.80;4.22;;;;;;;;;;5011980;28;20818;-81
2022/04/28 05:01:43;;;;;;;6.28;4.82;;;;;;;;;;5008714;28;20098;-81
2022/04/28 05:04:09;;;;;;;9.35;4.32;;;;;;;;;;5029154;28;20045;-81
2022/04/28 05:06:35;;;;;;;6.20;4.25;;;;;;;;;;5011044;28;20500;-81
2022/04/28 05:09:01;;;;;;;6.20;3.92;;;;;;;;;;5012383;28;20053;-81
2022/04/28 05:11:27;;;;;;;7.60;3.63;;;;;;;;;;5015719;28;20049;-80
2022/04/28 05:13:53;;;;;;;6.28;4.00;;;;;;;;;;5031395;28;20504;-81
2022/04/28 05:16:19;;;;;;;6.95;3.80;;;;;;;;;;5011600;28;20041;-81
2022/04/28 05:18:45;;;;;;;5.75;3.92;;;;;;;;;;5012302;28;20148;-81
2022/04/28 05:21:11;;;;;;;7.70;4.03;;;;;;;;;;5029389;28;20048;-81
2022/04/28 05:23:40;;;;;;;6.20;3.53;;;;;;;;;;5011034;28;20048;-80
2022/04/28 05:26:06;;;;;;;6.63;3.60;;;;;;;;;;5025811;28;20037;-80
2022/04/28 05:28:32;;;;;;;7.22;3.25;;;;;;;;;;5017476;28;20049;-80
2022/04/28 05:30:58;;;;;;;7.80;3.38;;;;;;;;;;5027353;28;20544;-81
2022/04/28 05:33:24;;;;;;;6.70;3.00;;;;;;;;;;5009690;28;20158;-81
2022/04/28 05:35:50;;;;;;;6.18;3.10;;;;;;;;;;5009938;28;20124;-81
2022/04/28 05:38:16;;;;;;;7.22;3.25;;;;;;;;;;5029271;28;20087;-80
2022/04/28 05:40:42;;;;;;;8.30;3.25;;;;;;;;;;5026550;28;20496;-81
2022/04/28 05:45:54;;;;;;;4.78;2.92;;;;;;;;;;5023697;28;20041;-82
2022/04/28 05:48:20;;;;;;;8.60;3.10;;;;;;;;;;5023656;28;20045;-81
2022/04/28 05:50:47;;;;;;;8.10;3.22;;;;;;;;;;5009441;28;20124;-80
2022/04/28 05:53:13;;;;;;;9.13;3.33;;;;;;;;;;5029824;28;20133;-81
2022/04/28 05:55:40;;;;;;;7.75;3.30;;;;;;;;;;5021069;28;21520;-80
2022/04/28 05:58:06;;;;;;;6.50;2.90;;;;;;;;;;5028228;28;20141;-81
2022/04/28 06:00:33;;;;;;;4.15;3.40;;;;;;;;;;5027509;28;20060;-80
2022/04/28 06:03:00;;;;;;;9.82;3.67;;;;;;;;;;5023186;28;20049;-80
2022/04/28 06:05:26;;;;;;;6.68;3.47;;;;;;;;;;5028988;28;20060;-81
2022/04/28 06:07:52;;;;;;;5.85;3.30;;;;;;;;;;5017131;28;20038;-80
2022/04/28 06:10:21;;;;;;;8.23;3.60;;;;;;;;;;5027080;28;20160;-81
2022/04/28 06:12:47;;;;;;;6.88;3.47;;;;;;;;;;5026684;28;20053;-81
2022/04/28 06:15:16;;;;;;;5.50;2.90;;;;;;;;;;5022438;28;20061;-81
2022/04/28 06:17:42;;;;;;;6.00;3.22;;;;;;;;;;5024816;28;20048;-80
2022/04/28 06:20:09;;;;;;;7.55;3.30;;;;;;;;;;5025363;28;20045;-80
2022/04/28 06:22:35;;;;;;;4.82;3.20;;;;;;;;;;5013743;28;20050;-81
2022/04/28 06:25:01;;;;;;;4.93;3.00;;;;;;;;;;5008929;28;20049;-81
2022/04/28 06:27:28;;;;;;;7.70;2.83;;;;;;;;;;5010885;28;20509;-81
2022/04/28 06:29:54;;;;;;;5.65;2.75;;;;;;;;;;5028458;28;20057;-81
2022/04/28 06:32:21;;;;;;;4.90;2.50;;;;;;;;;;5004106;28;20095;-80
2022/04/28 06:34:47;;;;;;;6.25;2.70;;;;;;;;;;5020613;28;20042;-81
2022/04/28 06:37:16;;;;;;;4.53;2.60;;;;;;;;;;5027248;28;20069;-80
2022/04/28 06:39:44;;;;;;;8.07;2.63;;;;;;;;;;5019590;28;20049;-81
2022/04/28 06:42:10;;;;;;;7.63;2.50;;;;;;;;;;5010570;28;20041;-81
2022/04/28 06:44:36;;;;;;;6.70;2.80;;;;;;;;;;5025524;28;20132;-81
2022/04/28 06:47:05;;;;;;;5.25;2.47;;;;;;;;;;5027704;28;20125;-82
2022/04/28 06:49:31;;;;;;;3.90;2.10;;;;;;;;;;5023896;28;20464;-81
2022/04/28 06:51:57;;;;;;;5.05;2.40;;;;;;;;;;5015210;28;20053;-81
2022/04/28 06:54:23;;;;;;;6.90;2.90;;;;;;;;;;5025639;28;20489;-81
2022/04/28 06:56:49;;;;;;;3.50;2.25;;;;;;;;;;5004170;28;20053;-81
2022/04/28 06:59:15;;;;;;;6.78;2.40;;;;;;;;;;5025941;28;20049;-80
2022/04/28 07:01:41;;;;;;;4.05;2.65;;;;;;;;;;5019225;28;20553;-81
2022/04/28 07:04:07;;;;;;;3.78;2.20;;;;;;;;;;5028168;28;20132;-81
2022/04/28 07:06:33;;;;;;;5.07;2.42;;;;;;;;;;5010304;28;20107;-80
2022/04/28 07:08:59;;;;;;;5.90;2.42;;;;;;;;;;5028797;28;20041;-80
2022/04/28 07:11:25;;;;;;;4.43;2.72;;;;;;;;;;5030473;28;20144;-80
2022/04/28 07:13:54;;;;;;;4.78;2.47;;;;;;;;;;5030758;28;20107;-81
2022/04/28 07:16:20;;;;;;;6.50;2.72;;;;;;;;;;5007693;28;20045;-80
2022/04/28 07:18:46;;;;;;;3.70;2.25;;;;;;;;;;5014193;28;20072;-80
2022/04/28 07:21:12;;;;;;;4.25;2.30;;;;;;;;;;5013220;28;20124;-80
2022/04/28 07:23:38;;;;;;;7.70;2.50;;;;;;;;;;5024380;28;20136;-80
2022/04/28 07:26:04;;;;;;;7.68;2.75;;;;;;;;;;5031282;28;21388;-80
2022/04/28 07:28:30;;;;;;;4.13;2.67;;;;;;;;;;5010597;28;20417;-81
2022/04/28 07:30:56;;;;;;;4.28;2.33;;;;;;;;;;5025581;28;20041;-82
2022/04/28 07:33:22;;;;;;;6.18;2.50;;;;;;;;;;5026897;28;20049;-80
2022/04/28 07:35:48;;;;;;;7.38;2.58;;;;;;;;;;5010807;28;20232;-81
2022/04/28 07:38:14;;;;;;;4.00;2.22;;;;;;;;;;5021050;28;20080;-80
2022/04/28 07:40:40;;;;;;;6.07;2.60;;;;;;;;;;5028332;28;20065;-80
2022/04/28 07:43:06;;;;;;;3.85;2.17;;;;;;;;;;5013391;28;20045;-80
2022/04/28 07:45:32;;;;;;;5.93;2.60;;;;;;;;;;5027263;28;20049;-80
2022/04/28 07:47:58;;;;;;;7.35;2.63;;;;;;;;;;5007889;28;20049;-81
2022/04/28 07:50:26;;;;;;;6.72;2.30;;;;;;;;;;5022669;28;20046;-80
2022/04/28 07:52:52;;;;;;;6.47;2.38;;;;;;;;;;5007893;28;20058;-82
2022/04/28 07:55:18;;;;;;;6.45;2.40;;;;;;;;;;5005847;28;20054;-82
2022/04/28 07:57:44;;;;;;;3.90;1.85;;;;;;;;;;5001479;28;20038;-82
2022/04/28 08:00:10;;;;;;;4.75;2.28;;;;;;;;;;4993523;28;20058;-81
2022/04/28 08:02:37;;;;;;;6.97;2.33;;;;;;;;;;5002617;28;20501;-81
2022/04/28 08:05:07;;;;;;;4.70;2.05;;;;;;;;;;5011590;28;20060;-82
2022/04/28 08:07:34;;;;;;;5.85;2.20;;;;;;;;;;5011659;28;20046;-80
2022/04/28 08:10:00;;;;;;;4.82;2.28;;;;;;;;;;5013128;28;20116;-81
2022/04/28 08:12:26;;;;;;;4.45;1.80;;;;;;;;;;5007647;28;20481;-81
2022/04/28 08:14:52;;;;;;;5.45;2.28;;;;;;;;;;4992797;28;20101;-81
2022/04/28 08:17:18;;;;;;;4.28;2.20;;;;;;;;;;5006538;28;20065;-82
2022/04/28 08:19:44;;;;;;;7.25;2.38;;;;;;;;;;5011107;28;20052;-81
2022/04/28 08:22:10;;;;;;;9.23;2.50;;;;;;;;;;5009805;28;20129;-81
2022/04/28 08:24:36;;;;;;;5.53;2.08;;;;;;;;;;5005173;28;20120;-81
2022/04/28 08:27:03;;;;;;;4.72;2.38;;;;;;;;;;5006434;28;20085;-81
2022/04/28 08:29:29;;;;;;;4.35;2.20;;;;;;;;;;5011071;28;20045;-79
2022/04/28 08:31:55;;;;;;;5.47;2.10;;;;;;;;;;5008549;28;20405;-82
2022/04/28 08:34:22;;;;;;;4.95;2.22;;;;;;;;;;5006638;28;20049;-80
2022/04/28 08:36:48;;;;;;;5.13;2.50;;;;;;;;;;5008444;28;20046;-80
2022/04/28 08:39:14;;;;;;;6.18;2.55;;;;;;;;;;5001526;28;20060;-80
2022/04/28 08:41:45;;;;;;;5.25;2.25;;;;;;;;;;4999183;28;20045;-81
2022/04/28 08:44:15;;;;;;;6.20;2.50;;;;;;;;;;5000738;28;20082;-81
2022/04/28 08:46:53;;;;;;;6.45;2.40;;;;;;;;;;5001333;28;20084;-81
2022/04/28 08:49:27;;;;;;;6.78;2.25;;;;;;;;;;5009009;28;20042;-81
2022/04/28 08:51:52;;;;;;;;;;;;;;;;;;5003454;28;20050;-80
2022/04/28 08:54:19;;;;;;;4.70;2.28;;;;;;;;;;5005346;28;19928;-80
2022/04/28 08:56:45;;;;;;;4.90;2.20;;;;;;;;;;5008631;28;20466;-81
2022/04/28 08:59:11;;;;;;;5.20;2.33;;;;;;;;;;5001856;28;20034;-80
2022/04/28 09:01:37;;;;;;;10.52;2.72;;;;;;;;;;4999531;28;20041;-80
2022/04/28 09:04:07;;;;;;;5.05;1.98;;;;;;;;;;5009664;28;20482;-81
2022/04/28 09:06:34;;;;;;;4.93;2.03;;;;;;;;;;5009488;28;20104;-80
2022/04/28 09:09:03;;;;;;;8.98;2.67;;;;;;;;;;5005947;28;20125;-82
2022/04/28 09:11:29;;;;;;;8.40;2.20;;;;;;;;;;5012495;28;20525;-80
2022/04/28 09:14:10;;;;;;;6.38;2.20;;;;;;;;;;5009905;28;20088;-81
2022/04/28 09:17:06;;;;;;;5.70;2.08;;;;;;;;;;4999458;28;20037;-80
2022/04/28 09:19:34;;;;;;;6.78;2.28;;;;;;;;;;5001766;28;20188;-80
2022/04/28 09:22:06;;;;;;;6.18;2.53;;;;;;;;;;5010362;28;20046;-80
2022/04/28 09:24:33;;;;;;;5.50;2.27;;;;;;;;;;5010082;28;20057;-81
2022/04/28 09:26:59;;;;;;;9.75;2.70;;;;;;;;;;5009147;28;20305;-82
2022/04/28 09:29:29;;;;;;;4.75;2.40;;;;;;;;;;5001322;28;20042;-82
2022/04/28 09:31:55;;;;;;;5.05;2.03;;;;;;;;;;5008720;28;20054;-82
2022/04/28 09:34:22;;;;;;;4.35;2.25;;;;;;;;;;5011141;28;20041;-81
2022/04/28 09:36:49;;;;;;;5.85;2.20;;;;;;;;;;5009903;28;20084;-83
2022/04/28 09:44:50;;;;;;;5.65;2.58;;;;;;;;;;5007068;28;20493;-82
2022/04/28 09:47:16;;;;;;;4.32;2.30;;;;;;;;;;5008195;28;20536;-82
2022/04/28 09:50:05;;;;;;;6.30;2.60;;;;;;;;;;5010464;28;20448;-82
2022/04/28 09:52:30;;;;;;;7.15;2.90;;;;;;;;;;5025751;28;20057;-81
2022/04/28 09:55:01;;;;;;;6.32;2.70;;;;;;;;;;5009181;28;20049;-81
2022/04/28 09:57:27;;;;;;;5.72;2.40;;;;;;;;;;5025547;28;20074;-81
2022/04/28 09:59:55;;;;;;;4.18;2.40;;;;;;;;;;5027514;28;20045;-81
2022/04/28 10:02:23;;;;;;;5.95;2.38;;;;;;;;;;5028093;28;20088;-81
2022/04/28 10:04:49;;;;;;;8.70;2.40;;;;;;;;;;5026777;28;20057;-82
2022/04/28 10:07:15;;;;;;;5.57;2.50;;;;;;;;;;5020191;28;20075;-82
2022/04/28 10:09:42;;;;;;;7.13;2.95;;;;;;;;;;5030736;28;20445;-81
2022/04/28 10:12:09;;;;;;;4.82;2.60;;;;;;;;;;5030199;28;20042;-82
2022/04/28 10:14:39;;;;;;;8.70;2.28;;;;;;;;;;5026135;28;20057;-81
2022/04/28 10:17:06;;;;;;;5.03;2.28;;;;;;;;;;5010165;28;20603;-82
2022/04/28 10:19:34;;;;;;;8.23;2.92;;;;;;;;;;5028951;28;20061;-82
2022/04/28 10:22:11;;;;;;;9.55;2.55;;;;;;;;;;5031182;28;20409;-82
2022/04/28 10:33:07;;;;;;;9.10;2.40;;;;;;;;;;5026424;28;20375;-81
2022/04/28 10:35:35;;;;;;;9.25;3.20;;;;;;;;;;5032104;28;20054;-81
2022/04/28 10:38:10;;;;;;;7.88;2.80;;;;;;;;;;5014217;28;20369;-81
2022/04/28 10:40:36;;;;;;;9.45;3.03;;;;;;;;;;5027412;28;20049;-81
2022/04/28 10:43:02;;;;;;;6.03;2.63;;;;;;;;;;5014063;28;20128;-81
2022/04/28 10:45:37;;;;;;;5.80;2.70;;;;;;;;;;5014216;28;20207;-81
2022/04/28 10:48:28;;;;;;;8.32;2.88;;;;;;;;;;5013306;28;20053;-81
2022/04/28 10:51:06;;;;;;;6.95;2.38;;;;;;;;;;5012909;28;20053;-81
2022/04/28 10:53:33;;;;;;;5.90;2.75;;;;;;;;;;5032961;28;20088;-81
2022/04/28 10:56:12;;;;;;;5.65;2.60;;;;;;;;;;5026624;28;20124;-81
2022/04/28 10:58:38;;;;;;;6.30;2.53;;;;;;;;;;5032059;28;20053;-81
2022/04/28 11:01:04;;;;;;;8.50;3.00;;;;;;;;;;5013597;28;20126;-81
2022/04/28 11:03:49;;;;;;;5.88;2.55;;;;;;;;;;5006118;28;20057;-82
2022/04/28 11:06:16;;;;;;;7.45;2.50;;;;;;;;;;5025393;28;20045;-80
2022/04/28 11:08:46;;;;;;;6.82;2.90;;;;;;;;;;5030211;28;20042;-80
2022/04/28 11:11:13;;;;;;;5.88;2.70;;;;;;;;;;5014719;28;20051;-80
2022/04/28 11:13:43;;;;;;;7.63;2.35;;;;;;;;;;5031836;28;20049;-81
2022/04/28 11:16:09;;;;;;;9.15;2.67;;;;;;;;;;5014299;28;20041;-80
2022/04/28 11:18:35;;;;;;;5.50;2.28;;;;;;;;;;5018513;28;20045;-80
2022/04/28 11:21:02;;;;;;;8.30;2.45;;;;;;;;;;5025296;28;20033;-81
2022/04/28 11:23:40;;;;;;;8.95;2.63;;;;;;;;;;5023707;28;20049;-81
2022/04/28 11:26:10;;;;;;;5.90;2.47;;;;;;;;;;5032181;28;20049;-83
2022/04/28 11:28:36;;;;;;;5.57;2.20;;;;;;;;;;5025368;28;20510;-80
2022/04/28 11:31:08;;;;;;;9.32;2.17;;;;;;;;;;5032324;28;20041;-79
2022/04/28 11:33:34;;;;;;;5.28;2.20;;;;;;;;;;5014051;28;20136;-80
2022/04/28 11:36:01;;;;;;;6.13;2.50;;;;;;;;;;5012207;28;20065;-80
2022/04/28 11:38:31;;;;;;;6.70;2.40;;;;;;;;;;5021478;28;20042;-80
2022/04/28 11:41:03;;;;;;;5.60;2.55;;;;;;;;;;5013924;28;20037;-80
2022/04/28 11:43:34;;;;;;;6.45;2.38;;;;;;;;;;5026652;28;20140;-80
2022/04/28 11:46:01;;;;;;;4.82;2.75;;;;;;;;;;5011145;28;20070;-81
2022/04/28 11:48:28;;;;;;;5.38;2.38;;;;;;;;;;5005579;28;20053;-81
2022/04/28 11:50:54;;;;;;;5.85;2.38;;;;;;;;;;5026413;28;20042;-82
2022/04/28 11:53:20;;;;;;;8.02;2.50;;;;;;;;;;5008309;28;20180;-80
2022/04/28 11:55:48;;;;;;;9.23;2.63;;;;;;;;;;5026491;28;20426;-81
2022/04/28 11:58:16;;;;;;;10.68;2.88;;;;;;;;;;5033064;28;20096;-80
2022/04/28 12:00:43;;;;;;;7.20;2.47;;;;;;;;;;5030958;28;20069;-80
2022/04/28 12:03:09;;;;;;;7.13;2.60;;;;;;;;;;5031373;28;20405;-80
2022/04/28 12:05:35;;;;;;;7.13;2.50;;;;;;;;;;5024046;28;20068;-80
2022/04/28 12:08:02;;;;;;;6.68;3.00;;;;;;;;;;5028820;28;20064;-80
2022/04/28 12:15:58;;;;;;;8.65;2.92;;;;;;;;;;5003025;28;20053;-80
2022/04/28 12:21:22;;;;;;;6.35;2.40;;;;;;;;;;5001696;28;20053;-80
2022/04/28 12:23:55;;;;;;;7.15;2.63;;;;;;;;;;5016667;28;20046;-80
2022/04/28 12:26:21;;;;;;;6.20;2.60;;;;;;;;;;5022228;28;20041;-80
2022/04/28 12:28:47;;;;;;;4.57;2.17;;;;;;;;;;5032371;28;20485;-80
2022/04/28 12:31:26;;;;;;;4.57;2.58;;;;;;;;;;5029351;28;20068;-80
2022/04/28 12:33:52;;;;;;;4.55;2.55;;;;;;;;;;5006605;28;20516;-80
2022/04/28 12:36:18;;;;;;;6.10;2.40;;;;;;;;;;5013597;28;20100;-81
2022/04/28 12:38:45;;;;;;;7.95;2.22;;;;;;;;;;5026447;28;20057;-79
2022/04/28 12:41:15;;;;;;;5.78;2.17;;;;;;;;;;5003923;28;20405;-80
2022/04/28 12:43:42;;;;;;;7.03;2.60;;;;;;;;;;5011691;28;20393;-80
2022/04/28 12:46:09;;;;;;;6.55;2.58;;;;;;;;;;5028493;28;20040;-81
2022/04/28 12:48:36;;;;;;;5.28;2.55;;;;;;;;;;5031197;28;20089;-80
2022/04/28 12:51:09;;;;;;;4.88;2.55;;;;;;;;;;5012584;28;20053;-79
2022/04/28 12:53:36;;;;;;;6.20;2.53;;;;;;;;;;5027730;28;20447;-80
2022/04/28 12:56:03;;;;;;;10.35;2.97;;;;;;;;;;5030804;28;20045;-80
2022/04/28 12:58:29;;;;;;;6.70;2.28;;;;;;;;;;5031008;28;20184;-80
2022/04/28 13:00:55;;;;;;;7.03;2.65;;;;;;;;;;5013525;28;20049;-80
2022/04/28 13:03:28;;;;;;;5.82;2.58;;;;;;;;;;5027771;28;20485;-81
2022/04/28 13:05:55;;;;;;;6.28;2.60;;;;;;;;;;5013886;28;20132;-82
2022/04/28 13:08:21;;;;;;;5.50;2.28;;;;;;;;;;5024774;28;20061;-81
2022/04/28 13:10:47;;;;;;;6.90;2.75;;;;;;;;;;5021829;28;20390;-81
2022/04/28 13:13:13;;;;;;;5.38;2.70;;;;;;;;;;5007166;28;20060;-80
2022/04/28 13:15:39;;;;;;;7.80;2.70;;;;;;;;;;5023694;28;20092;-83
2022/04/28 13:18:05;;;;;;;7.20;2.58;;;;;;;;;;5021517;28;20129;-83
2022/04/28 13:20:31;;;;;;;5.35;2.40;;;;;;;;;;5021612;28;20078;-83
2022/04/28 13:22:57;;;;;;;4.97;2.42;;;;;;;;;;5000712;28;20049;-83
2022/04/28 13:25:23;;;;;;;4.63;2.20;;;;;;;;;;5030044;28;20076;-83
2022/04/28 13:27:50;;;;;;;6.95;3.00;;;;;;;;;;5027618;28;20055;-84
2022/04/28 13:30:16;;;;;;;9.98;2.60;;;;;;;;;;5026129;28;20505;-83
2022/04/28 13:32:42;;;;;;;6.07;2.40;;;;;;;;;;5009706;28;20033;-83
2022/04/28 13:35:08;;;;;;;4.88;2.40;;;;;;;;;;5026723;28;20041;-83
2022/04/28 13:37:34;;;;;;;9.77;2.40;;;;;;;;;;5015502;28;20069;-83
2022/04/28 13:40:00;;;;;;;3.63;2.22;;;;;;;;;;5027718;28;20529;-84
2022/04/28 13:42:26;;;;;;;5.95;2.30;;;;;;;;;;5028064;28;20048;-83
2022/04/28 13:44:52;;;;;;;6.20;2.08;;;;;;;;;;5012289;28;20571;-80
2022/04/28 13:47:18;;;;;;;3.08;2.00;;;;;;;;;;5026131;28;20080;-81
2022/04/28 13:49:44;;;;;;;4.47;2.20;;;;;;;;;;5012966;28;20057;-81
2022/04/28 13:52:10;;;;;;;4.05;2.30;;;;;;;;;;5006557;28;20144;-81
2022/04/28 13:54:36;;;;;;;8.27;2.50;;;;;;;;;;5030608;28;20049;-82
2022/04/28 13:57:02;;;;;;;7.10;2.33;;;;;;;;;;5015321;28;20067;-81
2022/04/28 13:59:28;;;;;;;4.05;2.30;;;;;;;;;;5031189;28;20057;-81
2022/04/28 14:01:54;;;;;;;5.43;2.25;;;;;;;;;;5033587;28;20041;-80
2022/04/28 14:04:24;;;;;;;5.65;2.42;;;;;;;;;;5029268;28;20132;-81
2022/04/28 14:06:51;;;;;;;5.20;2.22;;;;;;;;;;5034303;28;20046;-83
2022/04/28 14:09:18;;;;;;;8.50;2.30;;;;;;;;;;5033797;28;20088;-83
2022/04/28 14:11:45;;;;;;;6.88;2.30;;;;;;;;;;5027695;28;20529;-83
2022/04/28 14:14:11;;;;;;;3.65;2.00;;;;;;;;;;5017047;28;20103;-83
2022/04/28 14:16:37;;;;;;;6.25;2.35;;;;;;;;;;5034131;28;20416;-80
2022/04/28 14:19:03;;;;;;;7.80;2.22;;;;;;;;;;5017666;28;20074;-80
2022/04/28 14:21:31;;;;;;;5.90;2.17;;;;;;;;;;5030188;28;20469;-80
2022/04/28 14:23:58;;;;;;;4.22;2.00;;;;;;;;;;5016379;28;20571;-81
2022/04/28 14:26:24;;;;;;;4.00;2.20;;;;;;;;;;5034443;28;20041;-80
2022/04/28 14:28:50;;;;;;;8.30;2.38;;;;;;;;;;5027639;28;20133;-81
2022/04/28 14:31:16;;;;;;;4.55;2.03;;;;;;;;;;5014217;28;20107;-81
2022/04/28 14:33:42;;;;;;;4.82;2.33;;;;;;;;;;5015372;28;20081;-80
2022/04/28 14:36:08;;;;;;;4.82;2.08;;;;;;;;;;5011602;28;20481;-80
2022/04/28 14:38:34;;;;;;;3.47;1.85;;;;;;;;;;5014146;28;20053;-80
2022/04/28 14:41:01;;;;;;;3.25;1.83;;;;;;;;;;5028384;28;20125;-80
2022/04/28 14:43:27;;;;;;;5.75;2.40;;;;;;;;;;5033825;28;20052;-80
2022/04/28 14:45:54;;;;;;;5.80;2.30;;;;;;;;;;5028126;28;20046;-80
2022/04/28 14:48:20;;;;;;;4.95;2.33;;;;;;;;;;5033047;28;20042;-82
2022/04/28 14:53:31;;;;;;;4.05;2.15;;;;;;;;;;5030082;28;20492;-82
2022/04/28 14:55:57;;;;;;;2.92;1.88;;;;;;;;;;5033340;28;20052;-81
2022/04/28 14:58:23;;;;;;;5.35;2.28;;;;;;;;;;5033691;28;20096;-83
2022/04/28 15:00:50;;;;;;;7.40;2.20;;;;;;;;;;5031418;28;20057;-83
2022/04/28 15:03:16;;;;;;;6.85;1.95;;;;;;;;;;5007867;28;20079;-82
2022/04/28 15:05:42;;;;;;;3.80;2.17;;;;;;;;;;5024859;28;20496;-83
2022/04/28 15:08:09;;;;;;;4.55;2.38;;;;;;;;;;5022544;28;20065;-83
2022/04/28 15:10:35;;;;;;;6.07;3.20;;;;;;;;;;5014659;28;20053;-82
2022/04/28 15:13:01;;;;;;;11.98;5.88;;;;;;;;;;5030791;28;20045;-81
2022/04/28 15:15:27;;;;;;;5.28;2.60;;;;;;;;;;5029061;28;20136;-82
2022/04/28 15:17:53;;;;;;;3.45;2.20;;;;;;;;;;5030943;28;20045;-82
2022/04/28 15:20:19;;;;;;;3.97;2.15;;;;;;;;;;5027501;28;20050;-83
2022/04/28 15:22:46;;;;;;;6.85;2.60;;;;;;;;;;5028184;28;20038;-80
2022/04/28 15:25:13;;;;;;;5.38;2.58;;;;;;;;;;5031119;28;20045;-80